Irving South's Hourly Summary for Sunday, March 19, 2017
Hour Temp
(f)
RH
(%)
Solar Rad.
(MJ/m2)
Rainfall
(in)
Wind
(mph)
3/19/2017 12:00 AM 67 70 0 0 0
3/19/2017 1:00 AM 66 70 0 0 0
3/19/2017 2:00 AM 65 72 0 0 0
3/19/2017 3:00 AM 63 78 0 0 0
3/19/2017 4:00 AM 62 78 0 0 0
3/19/2017 5:00 AM 63 78 0 0 0.75
3/19/2017 6:00 AM 65 78 0 0 2.21
3/19/2017 7:00 AM 64 80 0 0 1.05
3/19/2017 8:00 AM 64 87 0.02 0 1.97
3/19/2017 9:00 AM 65 80 0.36 0 2.85
3/19/2017 10:00 AM 65 80 0.29 0 4.7
3/19/2017 11:00 AM 68 71 0.85 0 3.25
3/19/2017 12:00 PM 72 61 2.19 0 3.85
3/19/2017 1:00 PM 74 54 2.65 0 5.74
3/19/2017 2:00 PM 77 48 2.87 0 5.17
3/19/2017 3:00 PM 80 44 2.76 0 4.77
3/19/2017 4:00 PM 82 40 2.33 0 4.58
3/19/2017 5:00 PM 83 40 1.85 0 4.63
3/19/2017 6:00 PM 82 41 1.16 0 5.23
3/19/2017 7:00 PM 81 44 0.47 0 3.37
3/19/2017 8:00 PM 77 48 0.04 0 2.75
3/19/2017 9:00 PM 74 53 0 0 1.56
3/19/2017 10:00 PM 73 56 0 0 2.48
3/19/2017 11:00 PM 72 55 0 0 2.77
Data Summary 71 62 17.84 0.00 2.65